You are listening to:
KFMY ATIS - Fort Myers, Florida, United States

KFMY 050053Z AUTO 07009KT 10SM BKN033 OVC041 21/13 A3026 RMK AO2 SLP249 T02110133

If stream doesn't start automatically press the play button
If stream stops then reload player then press play